Triumph, Idaho
Current Conditions -  °F | °C
As of 12:35 AM on Friday 31 Oct 2014 (Local Time) from KSUN Reporting Station
Clear Clear  
Wind Chill: 40°   Ceiling: Unl
Heat Index: 45°   Visibility: 10mi
Dew Point: 30°   Wind: 8mph
Humidity: 57%   Direction: 310°NW
Pressure: 30.1"   Gusts: NA
Location:  43.571°N, 114.16°W
Report Text: KSUN 310635Z AUTO 31007KT 10SM CLR 07/M01 A3010 RMK AO2
Loading
Personal Weather Stations






























Interactive Weather Map
Tropical Storm Tracking
New forecast layout! Learn more

10-Day Weather Forecast

Advertisements
Track Severe Weather on mobile